Ryuoh Maru No.2 — JM5900 — position and weather

sailwx.info

Track history (hours):
 
Tides and Currents Weather Stations Pressure Air Temp Water Temp Dewpoint Dewpoint Depression Visibility Wind Speed Wind Dir Waves Ship Positions

Ryuoh Maru No.2

Last reported at 2015-Jul-10 15:07 UTC. Time now 2015-Jul-29 04:51 UTC.
Position N 34°36' E 134°55'.
Warning: this ship's position is 18 days out of date.

Length 80 m; draft 4.9 m.

Type: Cargo ship. MMSI: 431401218.

Date/timePositionNaut miles runAvg speedWind from/ knotsBaromVisibWave heightAir tempDewpointWater temp
2015-Jul-10 15:07N 34°36' E 134°55'6 9.3
2015-Jul-10 14:30N 34°37' E 135°01'8 8.4
2015-Jul-10 13:33N 34°30' E 135°04'1110.4
2015-Jul-10 12:32N 34°19' E 135°00'9 9.7
2015-Jul-10 11:33N 34°10' E 135°00'237 8.4
2015-Jul-09 07:13N 34°47' E 139°44'1110.8
2015-Jul-09 06:10N 34°53' E 139°57'710.8
2015-Jul-09 05:33N 34°56' E 140°03'1211.2
2015-Jul-09 04:31N 35°03' E 140°15'1110.5
2015-Jul-09 03:26N 35°09' E 140°27'1110.4
2015-Jul-09 02:22N 35°18' E 140°34'910.8
2015-Jul-09 01:32N 35°25' E 140°41'3210.0
2015-Jul-08 22:21N 35°56' E 140°53'  
Track history (hours):
 
Tides and Currents Weather Stations Pressure Air Temp Water Temp Dewpoint Dewpoint Depression Visibility Wind Speed Wind Dir Waves Ship Positions

Ryuoh Maru No.2

Last reported at 2015-Jul-10 15:07 UTC. Time now 2015-Jul-29 04:51 UTC.
Position N 34°36' E 134°55'.
Warning: this ship's position is 18 days out of date.

Length 80 m; draft 4.9 m.

Type: Cargo ship. MMSI: 431401218.

Date/timePositionNaut miles runAvg speedWind from/ knotsBaromVisibWave heightAir tempDewpointWater temp
2015-Jul-10 15:07N 34°36' E 134°55'6 9.3
2015-Jul-10 14:30N 34°37' E 135°01'8 8.4
2015-Jul-10 13:33N 34°30' E 135°04'1110.4
2015-Jul-10 12:32N 34°19' E 135°00'9 9.7
2015-Jul-10 11:33N 34°10' E 135°00'237 8.4
2015-Jul-09 07:13N 34°47' E 139°44'1110.8
2015-Jul-09 06:10N 34°53' E 139°57'710.8
2015-Jul-09 05:33N 34°56' E 140°03'1211.2
2015-Jul-09 04:31N 35°03' E 140°15'1110.5
2015-Jul-09 03:26N 35°09' E 140°27'1110.4
2015-Jul-09 02:22N 35°18' E 140°34'910.8
2015-Jul-09 01:32N 35°25' E 140°41'3210.0
2015-Jul-08 22:21N 35°56' E 140°53'  

Dump ship's entire track history